sensor_id;sensor_type;location;lat;lon;timestamp;pressure;altitude;pressure_sealevel;temperature;humidity
63556;BME280;49700;48.072;7.800;2023-08-08T00:01:41;99728.66;;;15.67;nan
63556;BME280;49700;48.072;7.800;2023-08-08T00:04:11;99718.69;;;15.59;nan
63556;BME280;49700;48.072;7.800;2023-08-08T00:06:37;99726.41;;;15.51;nan
63556;BME280;49700;48.072;7.800;2023-08-08T00:09:03;99720.78;;;15.44;nan
63556;BME280;49700;48.072;7.800;2023-08-08T00:11:32;99725.50;;;15.41;nan
63556;BME280;49700;48.072;7.800;2023-08-08T00:13:57;99722.72;;;15.42;nan
63556;BME280;49700;48.072;7.800;2023-08-08T00:16:23;99721.75;;;15.43;nan
63556;BME280;49700;48.072;7.800;2023-08-08T00:18:48;99726.94;;;15.45;nan
63556;BME280;49700;48.072;7.800;2023-08-08T00:21:19;99723.31;;;15.46;nan
63556;BME280;49700;48.072;7.800;2023-08-08T00:23:45;99728.59;;;15.46;nan
63556;BME280;49700;48.072;7.800;2023-08-08T00:26:11;99717.53;;;15.41;nan
63556;BME280;49700;48.072;7.800;2023-08-08T00:28:36;99720.56;;;15.36;nan
63556;BME280;49700;48.072;7.800;2023-08-08T00:31:02;99720.97;;;15.32;nan
63556;BME280;49700;48.072;7.800;2023-08-08T00:33:28;99717.63;;;15.18;nan
63556;BME280;49700;48.072;7.800;2023-08-08T00:35:53;99721.25;;;15.06;nan
63556;BME280;49700;48.072;7.800;2023-08-08T00:38:18;99720.78;;;15.01;nan
63556;BME280;49700;48.072;7.800;2023-08-08T00:40:44;99717.03;;;15.03;nan
63556;BME280;49700;48.072;7.800;2023-08-08T00:43:10;99704.66;;;15.04;nan
63556;BME280;49700;48.072;7.800;2023-08-08T00:45:36;99708.53;;;15.00;nan
63556;BME280;49700;48.072;7.800;2023-08-08T00:48:02;99712.97;;;14.99;nan
63556;BME280;49700;48.072;7.800;2023-08-08T00:50:27;99704.06;;;15.00;nan
63556;BME280;49700;48.072;7.800;2023-08-08T00:52:53;99700.84;;;14.97;nan
63556;BME280;49700;48.072;7.800;2023-08-08T00:55:18;99711.66;;;14.94;nan
63556;BME280;49700;48.072;7.800;2023-08-08T00:57:44;99710.69;;;14.95;nan
63556;BME280;49700;48.072;7.800;2023-08-08T01:00:10;99709.59;;;14.97;nan
63556;BME280;49700;48.072;7.800;2023-08-08T01:02:37;99710.59;;;14.96;nan
63556;BME280;49700;48.072;7.800;2023-08-08T01:05:03;99708.78;;;14.97;nan
63556;BME280;49700;48.072;7.800;2023-08-08T01:07:54;99709.03;;;14.94;nan
63556;BME280;49700;48.072;7.800;2023-08-08T01:10:29;99701.56;;;14.88;nan
63556;BME280;49700;48.072;7.800;2023-08-08T01:13:00;99699.31;;;14.83;nan
63556;BME280;49700;48.072;7.800;2023-08-08T01:15:28;99702.88;;;14.82;nan
63556;BME280;49700;48.072;7.800;2023-08-08T01:17:57;99691.13;;;14.75;nan
63556;BME280;49700;48.072;7.800;2023-08-08T01:20:23;99690.53;;;14.71;nan
63556;BME280;49700;48.072;7.800;2023-08-08T01:23:14;99686.94;;;14.72;nan
63556;BME280;49700;48.072;7.800;2023-08-08T01:25:41;99697.13;;;14.77;nan
63556;BME280;49700;48.072;7.800;2023-08-08T01:28:08;99691.63;;;14.80;nan
63556;BME280;49700;48.072;7.800;2023-08-08T01:30:33;99696.66;;;14.83;nan
63556;BME280;49700;48.072;7.800;2023-08-08T01:33:00;99702.53;;;14.87;nan
63556;BME280;49700;48.072;7.800;2023-08-08T01:35:26;99700.47;;;14.90;nan
63556;BME280;49700;48.072;7.800;2023-08-08T01:37:59;99693.16;;;14.94;nan
63556;BME280;49700;48.072;7.800;2023-08-08T01:40:28;99696.75;;;14.93;nan
63556;BME280;49700;48.072;7.800;2023-08-08T01:42:54;99697.72;;;14.92;nan
63556;BME280;49700;48.072;7.800;2023-08-08T01:45:21;99696.03;;;14.91;nan
63556;BME280;49700;48.072;7.800;2023-08-08T01:47:50;99685.47;;;14.91;nan
63556;BME280;49700;48.072;7.800;2023-08-08T01:50:16;99683.78;;;14.90;nan
63556;BME280;49700;48.072;7.800;2023-08-08T01:52:41;99684.03;;;14.87;nan
63556;BME280;49700;48.072;7.800;2023-08-08T01:55:07;99682.81;;;14.79;nan
63556;BME280;49700;48.072;7.800;2023-08-08T01:57:32;99679.94;;;14.71;nan
63556;BME280;49700;48.072;7.800;2023-08-08T01:59:58;99684.75;;;14.66;nan
63556;BME280;49700;48.072;7.800;2023-08-08T02:02:23;99681.78;;;14.59;nan
63556;BME280;49700;48.072;7.800;2023-08-08T02:04:49;99687.31;;;14.56;nan
63556;BME280;49700;48.072;7.800;2023-08-08T02:07:14;99685.75;;;14.54;nan
63556;BME280;49700;48.072;7.800;2023-08-08T02:09:40;99685.75;;;14.54;nan
63556;BME280;49700;48.072;7.800;2023-08-08T02:12:07;99682.25;;;14.53;nan
63556;BME280;49700;48.072;7.800;2023-08-08T02:14:32;99687.75;;;14.50;nan
63556;BME280;49700;48.072;7.800;2023-08-08T02:16:58;99689.78;;;14.47;nan
63556;BME280;49700;48.072;7.800;2023-08-08T02:19:23;99686.81;;;14.40;nan
63556;BME280;49700;48.072;7.800;2023-08-08T02:21:48;99685.59;;;14.33;nan
63556;BME280;49700;48.072;7.800;2023-08-08T02:24:17;99687.25;;;14.23;nan
63556;BME280;49700;48.072;7.800;2023-08-08T02:26:42;99694.34;;;14.11;nan
63556;BME280;49700;48.072;7.800;2023-08-08T02:29:07;99698.63;;;14.01;nan
63556;BME280;49700;48.072;7.800;2023-08-08T02:31:33;99691.19;;;13.94;nan
63556;BME280;49700;48.072;7.800;2023-08-08T02:33:58;99698.28;;;13.94;nan
63556;BME280;49700;48.072;7.800;2023-08-08T02:36:23;99701.75;;;13.94;nan
63556;BME280;49700;48.072;7.800;2023-08-08T02:38:49;99697.22;;;13.97;nan
63556;BME280;49700;48.072;7.800;2023-08-08T02:41:18;99695.25;;;13.99;nan
63556;BME280;49700;48.072;7.800;2023-08-08T02:43:44;99696.22;;;13.98;nan
63556;BME280;49700;48.072;7.800;2023-08-08T02:46:11;99691.19;;;13.94;nan
63556;BME280;49700;48.072;7.800;2023-08-08T02:48:36;99692.03;;;13.95;nan
63556;BME280;49700;48.072;7.800;2023-08-08T02:51:02;99691.94;;;13.97;nan
63556;BME280;49700;48.072;7.800;2023-08-08T02:53:27;99691.78;;;13.98;nan
63556;BME280;49700;48.072;7.800;2023-08-08T02:55:53;99681.34;;;13.97;nan
63556;BME280;49700;48.072;7.800;2023-08-08T02:58:18;99687.09;;;13.90;nan
63556;BME280;49700;48.072;7.800;2023-08-08T03:00:45;99682.41;;;13.83;nan
63556;BME280;49700;48.072;7.800;2023-08-08T03:03:13;99676.50;;;13.79;nan
63556;BME280;49700;48.072;7.800;2023-08-08T03:05:39;99677.47;;;13.78;nan
63556;BME280;49700;48.072;7.800;2023-08-08T03:08:05;99680.34;;;13.75;nan
63556;BME280;49700;48.072;7.800;2023-08-08T03:10:32;99686.38;;;13.77;nan
63556;BME280;49700;48.072;7.800;2023-08-08T03:13:00;99676.63;;;13.78;nan
63556;BME280;49700;48.072;7.800;2023-08-08T03:15:26;99683.59;;;13.79;nan
63556;BME280;49700;48.072;7.800;2023-08-08T03:17:51;99675.06;;;13.75;nan
63556;BME280;49700;48.072;7.800;2023-08-08T03:20:20;99674.91;;;13.65;nan
63556;BME280;49700;48.072;7.800;2023-08-08T03:22:45;99680.53;;;13.61;nan
63556;BME280;49700;48.072;7.800;2023-08-08T03:25:11;99678.97;;;13.58;nan
63556;BME280;49700;48.072;7.800;2023-08-08T03:27:36;99682.69;;;13.56;nan
63556;BME280;49700;48.072;7.800;2023-08-08T03:30:02;99684.59;;;13.54;nan
63556;BME280;49700;48.072;7.800;2023-08-08T03:32:32;99686.84;;;13.47;nan
63556;BME280;49700;48.072;7.800;2023-08-08T03:34:58;99690.03;;;13.39;nan
63556;BME280;49700;48.072;7.800;2023-08-08T03:37:23;99684.16;;;13.36;nan
63556;BME280;49700;48.072;7.800;2023-08-08T03:39:48;99695.53;;;13.36;nan
63556;BME280;49700;48.072;7.800;2023-08-08T03:42:15;99691.13;;;13.37;nan
63556;BME280;49700;48.072;7.800;2023-08-08T03:44:40;99696.75;;;13.32;nan
63556;BME280;49700;48.072;7.800;2023-08-08T03:47:06;99685.69;;;13.27;nan
63556;BME280;49700;48.072;7.800;2023-08-08T03:49:32;99685.69;;;13.27;nan
63556;BME280;49700;48.072;7.800;2023-08-08T03:51:59;99687.34;;;13.28;nan
63556;BME280;49700;48.072;7.800;2023-08-08T03:54:24;99693.38;;;13.30;nan
63556;BME280;49700;48.072;7.800;2023-08-08T03:56:49;99690.50;;;13.33;nan
63556;BME280;49700;48.072;7.800;2023-08-08T03:59:15;99686.19;;;13.32;nan
63556;BME280;49700;48.072;7.800;2023-08-08T04:01:41;99692.31;;;13.33;nan
63556;BME280;49700;48.072;7.800;2023-08-08T04:04:06;99696.50;;;13.35;nan
63556;BME280;49700;48.072;7.800;2023-08-08T04:06:31;99694.47;;;13.39;nan
63556;BME280;49700;48.072;7.800;2023-08-08T04:08:57;99695.31;;;13.39;nan
63556;BME280;49700;48.072;7.800;2023-08-08T04:11:22;99706.00;;;13.38;nan
63556;BME280;49700;48.072;7.800;2023-08-08T04:13:49;99700.13;;;13.34;nan
63556;BME280;49700;48.072;7.800;2023-08-08T04:16:14;99704.66;;;13.32;nan
63556;BME280;49700;48.072;7.800;2023-08-08T04:18:40;99703.09;;;13.30;nan
63556;BME280;49700;48.072;7.800;2023-08-08T04:21:05;99711.84;;;13.30;nan
63556;BME280;49700;48.072;7.800;2023-08-08T04:23:31;99701.19;;;13.32;nan
63556;BME280;49700;48.072;7.800;2023-08-08T04:25:56;99708.03;;;13.34;nan
63556;BME280;49700;48.072;7.800;2023-08-08T04:28:21;99705.41;;;13.34;nan
63556;BME280;49700;48.072;7.800;2023-08-08T04:30:47;99702.47;;;13.26;nan
63556;BME280;49700;48.072;7.800;2023-08-08T04:33:12;99702.38;;;13.15;nan
63556;BME280;49700;48.072;7.800;2023-08-08T04:35:38;99708.59;;;13.14;nan
63556;BME280;49700;48.072;7.800;2023-08-08T04:38:03;99711.84;;;13.17;nan
63556;BME280;49700;48.072;7.800;2023-08-08T04:40:29;99703.63;;;13.22;nan
63556;BME280;49700;48.072;7.800;2023-08-08T04:42:54;99704.22;;;13.25;nan
63556;BME280;49700;48.072;7.800;2023-08-08T04:45:20;99698.88;;;13.27;nan
63556;BME280;49700;48.072;7.800;2023-08-08T04:47:46;99706.69;;;13.28;nan
63556;BME280;49700;48.072;7.800;2023-08-08T04:50:12;99700.53;;;13.28;nan
63556;BME280;49700;48.072;7.800;2023-08-08T04:52:37;99711.50;;;13.35;nan
63556;BME280;49700;48.072;7.800;2023-08-08T04:55:03;99712.00;;;13.40;nan
63556;BME280;49700;48.072;7.800;2023-08-08T04:57:28;99711.66;;;13.44;nan
63556;BME280;49700;48.072;7.800;2023-08-08T04:59:54;99718.16;;;13.52;nan
63556;BME280;49700;48.072;7.800;2023-08-08T05:02:19;99722.75;;;13.61;nan
63556;BME280;49700;48.072;7.800;2023-08-08T05:04:44;99724.81;;;13.68;nan
63556;BME280;49700;48.072;7.800;2023-08-08T05:07:10;99722.59;;;13.75;nan
63556;BME280;49700;48.072;7.800;2023-08-08T05:09:35;99725.03;;;13.89;nan
63556;BME280;49700;48.072;7.800;2023-08-08T05:12:01;99719.44;;;14.16;nan
63556;BME280;49700;48.072;7.800;2023-08-08T05:14:26;99717.22;;;14.57;nan
63556;BME280;49700;48.072;7.800;2023-08-08T05:16:52;99715.22;;;15.04;nan
63556;BME280;49700;48.072;7.800;2023-08-08T05:19:17;99707.75;;;15.53;nan
63556;BME280;49700;48.072;7.800;2023-08-08T05:21:42;99702.97;;;16.00;nan
63556;BME280;49700;48.072;7.800;2023-08-08T05:24:08;99699.69;;;16.38;nan
63556;BME280;49700;48.072;7.800;2023-08-08T05:26:33;99697.91;;;16.79;nan
63556;BME280;49700;48.072;7.800;2023-08-08T05:28:59;99688.22;;;17.28;nan
63556;BME280;49700;48.072;7.800;2023-08-08T05:31:24;99680.25;;;17.77;nan
63556;BME280;49700;48.072;7.800;2023-08-08T05:33:49;99678.97;;;18.10;nan
63556;BME280;49700;48.072;7.800;2023-08-08T05:36:15;99680.13;;;18.45;nan
63556;BME280;49700;48.072;7.800;2023-08-08T05:38:40;99682.91;;;18.81;nan
63556;BME280;49700;48.072;7.800;2023-08-08T05:41:08;99682.28;;;19.32;nan
63556;BME280;49700;48.072;7.800;2023-08-08T05:43:34;99677.94;;;19.85;nan
63556;BME280;49700;48.072;7.800;2023-08-08T05:45:59;99683.25;;;20.37;nan
63556;BME280;49700;48.072;7.800;2023-08-08T05:48:25;99683.28;;;20.71;nan
63556;BME280;49700;48.072;7.800;2023-08-08T05:50:50;99681.19;;;20.99;nan
63556;BME280;49700;48.072;7.800;2023-08-08T05:53:16;99685.75;;;21.15;nan
63556;BME280;49700;48.072;7.800;2023-08-08T05:55:41;99685.41;;;21.10;nan
63556;BME280;49700;48.072;7.800;2023-08-08T05:58:08;99692.56;;;21.10;nan
63556;BME280;49700;48.072;7.800;2023-08-08T06:00:33;99690.91;;;21.25;nan
63556;BME280;49700;48.072;7.800;2023-08-08T06:03:00;99695.97;;;21.36;nan
63556;BME280;49700;48.072;7.800;2023-08-08T06:05:26;99687.28;;;21.34;nan
63556;BME280;49700;48.072;7.800;2023-08-08T06:07:51;99687.41;;;21.25;nan
63556;BME280;49700;48.072;7.800;2023-08-08T06:10:16;99684.22;;;21.05;nan
63556;BME280;49700;48.072;7.800;2023-08-08T06:12:42;99682.78;;;20.76;nan
63556;BME280;49700;48.072;7.800;2023-08-08T06:15:08;99684.09;;;20.64;nan
63556;BME280;49700;48.072;7.800;2023-08-08T06:17:33;99683.81;;;20.49;nan
63556;BME280;49700;48.072;7.800;2023-08-08T06:19:59;99675.94;;;20.39;nan
63556;BME280;49700;48.072;7.800;2023-08-08T06:22:24;99674.53;;;20.27;nan
63556;BME280;49700;48.072;7.800;2023-08-08T06:24:50;99675.56;;;20.34;nan
63556;BME280;49700;48.072;7.800;2023-08-08T06:27:16;99673.75;;;20.61;nan
63556;BME280;49700;48.072;7.800;2023-08-08T06:29:42;99683.16;;;20.89;nan
63556;BME280;49700;48.072;7.800;2023-08-08T06:32:07;99673.69;;;21.11;nan
63556;BME280;49700;48.072;7.800;2023-08-08T06:34:33;99678.59;;;21.32;nan
63556;BME280;49700;48.072;7.800;2023-08-08T06:36:58;99677.47;;;21.51;nan
63556;BME280;49700;48.072;7.800;2023-08-08T06:39:24;99674.44;;;21.79;nan
63556;BME280;49700;48.072;7.800;2023-08-08T06:41:50;99671.41;;;22.06;nan
63556;BME280;49700;48.072;7.800;2023-08-08T06:44:19;99675.56;;;22.34;nan
63556;BME280;49700;48.072;7.800;2023-08-08T06:46:44;99676.66;;;22.56;nan
63556;BME280;49700;48.072;7.800;2023-08-08T06:49:10;99669.13;;;22.51;nan
63556;BME280;49700;48.072;7.800;2023-08-08T06:51:36;99667.31;;;22.43;nan
63556;BME280;49700;48.072;7.800;2023-08-08T06:54:01;99670.59;;;22.62;nan
63556;BME280;49700;48.072;7.800;2023-08-08T06:56:26;99657.38;;;23.00;nan
63556;BME280;49700;48.072;7.800;2023-08-08T07:01:39;99658.84;;;23.94;nan
63556;BME280;49700;48.072;7.800;2023-08-08T07:04:05;99654.59;;;24.29;nan
63556;BME280;49700;48.072;7.800;2023-08-08T07:06:30;99656.53;;;24.65;nan
63556;BME280;49700;48.072;7.800;2023-08-08T07:08:56;99663.06;;;24.71;nan
63556;BME280;49700;48.072;7.800;2023-08-08T07:11:21;99672.38;;;24.75;nan
63556;BME280;49700;48.072;7.800;2023-08-08T07:13:47;99674.44;;;24.58;nan
63556;BME280;49700;48.072;7.800;2023-08-08T07:16:12;99663.53;;;24.45;nan
63556;BME280;49700;48.072;7.800;2023-08-08T07:18:38;99666.88;;;24.47;nan
63556;BME280;49700;48.072;7.800;2023-08-08T07:21:03;99662.13;;;24.64;nan
63556;BME280;49700;48.072;7.800;2023-08-08T07:23:29;99655.03;;;24.92;nan
63556;BME280;49700;48.072;7.800;2023-08-08T07:25:54;99652.97;;;25.31;nan
63556;BME280;49700;48.072;7.800;2023-08-08T07:28:20;99650.94;;;25.82;nan
63556;BME280;49700;48.072;7.800;2023-08-08T07:30:45;99647.31;;;26.25;nan
63556;BME280;49700;48.072;7.800;2023-08-08T07:33:10;99646.81;;;26.49;nan
63556;BME280;49700;48.072;7.800;2023-08-08T07:35:36;99644.66;;;26.66;nan
63556;BME280;49700;48.072;7.800;2023-08-08T07:38:01;99643.16;;;26.57;nan
63556;BME280;49700;48.072;7.800;2023-08-08T07:40:27;99647.28;;;26.18;nan
63556;BME280;49700;48.072;7.800;2023-08-08T07:42:52;99642.50;;;25.86;nan
63556;BME280;49700;48.072;7.800;2023-08-08T07:45:18;99650.00;;;25.90;nan
63556;BME280;49700;48.072;7.800;2023-08-08T07:47:43;99650.78;;;26.19;nan
63556;BME280;49700;48.072;7.800;2023-08-08T07:50:09;99644.72;;;26.45;nan
63556;BME280;49700;48.072;7.800;2023-08-08T07:52:36;99647.59;;;26.37;nan
63556;BME280;49700;48.072;7.800;2023-08-08T07:55:02;99654.63;;;26.38;nan
63556;BME280;49700;48.072;7.800;2023-08-08T07:57:28;99644.78;;;26.52;nan
63556;BME280;49700;48.072;7.800;2023-08-08T07:59:55;99643.81;;;26.73;nan
63556;BME280;49700;48.072;7.800;2023-08-08T08:02:20;99633.97;;;27.00;nan
63556;BME280;49700;48.072;7.800;2023-08-08T08:04:46;99633.16;;;27.12;nan
63556;BME280;49700;48.072;7.800;2023-08-08T08:07:11;99630.53;;;27.26;nan
63556;BME280;49700;48.072;7.800;2023-08-08T08:09:37;99628.44;;;27.34;nan
63556;BME280;49700;48.072;7.800;2023-08-08T08:12:02;99627.84;;;27.46;nan
63556;BME280;49700;48.072;7.800;2023-08-08T08:14:28;99618.50;;;27.55;nan
63556;BME280;49700;48.072;7.800;2023-08-08T08:16:53;99622.03;;;27.69;nan
63556;BME280;49700;48.072;7.800;2023-08-08T08:19:19;99613.13;;;27.55;nan
63556;BME280;49700;48.072;7.800;2023-08-08T08:21:45;99617.66;;;27.21;nan
63556;BME280;49700;48.072;7.800;2023-08-08T08:24:10;99610.16;;;27.17;nan
63556;BME280;49700;48.072;7.800;2023-08-08T08:26:35;99616.16;;;27.12;nan
63556;BME280;49700;48.072;7.800;2023-08-08T08:29:01;99604.78;;;27.23;nan
63556;BME280;49700;48.072;7.800;2023-08-08T08:31:27;99605.63;;;27.30;nan
63556;BME280;49700;48.072;7.800;2023-08-08T08:33:52;99602.09;;;27.30;nan
63556;BME280;49700;48.072;7.800;2023-08-08T08:36:20;99601.50;;;27.28;nan
63556;BME280;49700;48.072;7.800;2023-08-08T08:38:46;99601.25;;;27.29;nan
63556;BME280;49700;48.072;7.800;2023-08-08T08:41:15;99604.38;;;27.26;nan
63556;BME280;49700;48.072;7.800;2023-08-08T08:43:42;99601.69;;;27.20;nan
63556;BME280;49700;48.072;7.800;2023-08-08T08:46:11;99601.41;;;27.01;nan
63556;BME280;49700;48.072;7.800;2023-08-08T08:48:37;99603.78;;;26.56;nan
63556;BME280;49700;48.072;7.800;2023-08-08T08:51:02;99603.09;;;26.47;nan
63556;BME280;49700;48.072;7.800;2023-08-08T08:53:28;99604.06;;;26.33;nan
63556;BME280;49700;48.072;7.800;2023-08-08T08:55:56;99609.41;;;26.26;nan
63556;BME280;49700;48.072;7.800;2023-08-08T08:58:22;99604.03;;;26.26;nan
63556;BME280;49700;48.072;7.800;2023-08-08T09:00:49;99607.53;;;26.20;nan
63556;BME280;49700;48.072;7.800;2023-08-08T09:03:16;99606.06;;;26.18;nan
63556;BME280;49700;48.072;7.800;2023-08-08T09:05:42;99616.78;;;26.11;nan
63556;BME280;49700;48.072;7.800;2023-08-08T09:08:17;99603.69;;;26.01;nan
63556;BME280;49700;48.072;7.800;2023-08-08T09:11:11;99608.59;;;25.91;nan
63556;BME280;49700;48.072;7.800;2023-08-08T09:13:37;99604.19;;;25.83;nan
63556;BME280;49700;48.072;7.800;2023-08-08T09:16:06;99598.88;;;25.90;nan
63556;BME280;49700;48.072;7.800;2023-08-08T09:18:33;99597.25;;;26.02;nan
63556;BME280;49700;48.072;7.800;2023-08-08T09:20:59;99603.94;;;26.07;nan
63556;BME280;49700;48.072;7.800;2023-08-08T09:23:24;99597.25;;;25.96;nan
63556;BME280;49700;48.072;7.800;2023-08-08T09:25:50;99595.44;;;25.81;nan
63556;BME280;49700;48.072;7.800;2023-08-08T09:28:16;99593.50;;;25.69;nan
63556;BME280;49700;48.072;7.800;2023-08-08T09:30:42;99595.16;;;25.70;nan
63556;BME280;49700;48.072;7.800;2023-08-08T09:33:08;99590.34;;;25.87;nan
63556;BME280;49700;48.072;7.800;2023-08-08T09:35:33;99593.03;;;25.87;nan
63556;BME280;49700;48.072;7.800;2023-08-08T09:37:59;99584.59;;;25.90;nan
63556;BME280;49700;48.072;7.800;2023-08-08T09:40:24;99589.81;;;25.98;nan
63556;BME280;49700;48.072;7.800;2023-08-08T09:42:52;99584.25;;;26.06;nan
63556;BME280;49700;48.072;7.800;2023-08-08T09:45:18;99581.34;;;26.01;nan
63556;BME280;49700;48.072;7.800;2023-08-08T09:47:44;99588.41;;;26.09;nan
63556;BME280;49700;48.072;7.800;2023-08-08T09:50:09;99579.97;;;26.18;nan
63556;BME280;49700;48.072;7.800;2023-08-08T09:52:35;99574.56;;;26.18;nan
63556;BME280;49700;48.072;7.800;2023-08-08T09:55:04;99578.09;;;26.19;nan
63556;BME280;49700;48.072;7.800;2023-08-08T09:57:30;99577.69;;;26.22;nan
63556;BME280;49700;48.072;7.800;2023-08-08T09:59:57;99562.63;;;26.27;nan
63556;BME280;49700;48.072;7.800;2023-08-08T10:02:22;99557.47;;;26.39;nan
63556;BME280;49700;48.072;7.800;2023-08-08T10:04:48;99557.31;;;26.47;nan
63556;BME280;49700;48.072;7.800;2023-08-08T10:07:14;99561.25;;;26.52;nan
63556;BME280;49700;48.072;7.800;2023-08-08T10:09:40;99560.25;;;26.59;nan
63556;BME280;49700;48.072;7.800;2023-08-08T10:12:07;99551.19;;;26.74;nan
63556;BME280;49700;48.072;7.800;2023-08-08T10:14:35;99555.94;;;26.78;nan
63556;BME280;49700;48.072;7.800;2023-08-08T10:17:05;99543.78;;;26.96;nan
63556;BME280;49700;48.072;7.800;2023-08-08T10:19:32;99546.84;;;26.86;nan
63556;BME280;49700;48.072;7.800;2023-08-08T10:22:03;99549.94;;;26.63;nan
63556;BME280;49700;48.072;7.800;2023-08-08T10:24:34;99547.34;;;26.48;nan
63556;BME280;49700;48.072;7.800;2023-08-08T10:27:01;99548.75;;;26.37;nan
63556;BME280;49700;48.072;7.800;2023-08-08T10:29:29;99556.22;;;26.35;nan
63556;BME280;49700;48.072;7.800;2023-08-08T10:31:59;99554.09;;;26.24;nan
63556;BME280;49700;48.072;7.800;2023-08-08T10:34:44;99561.69;;;26.14;nan
63556;BME280;49700;48.072;7.800;2023-08-08T10:37:15;99560.03;;;26.06;nan
63556;BME280;49700;48.072;7.800;2023-08-08T10:39:58;99546.19;;;26.16;nan
63556;BME280;49700;48.072;7.800;2023-08-08T10:42:27;99545.00;;;26.25;nan
63556;BME280;49700;48.072;7.800;2023-08-08T10:45:01;99547.06;;;26.30;nan
63556;BME280;49700;48.072;7.800;2023-08-08T10:47:33;99542.09;;;26.26;nan
63556;BME280;49700;48.072;7.800;2023-08-08T10:50:14;99546.94;;;26.44;nan
63556;BME280;49700;48.072;7.800;2023-08-08T10:55:26;99546.78;;;26.53;nan
63556;BME280;49700;48.072;7.800;2023-08-08T10:57:59;99551.00;;;26.27;nan
63556;BME280;49700;48.072;7.800;2023-08-08T11:00:30;99549.53;;;26.18;nan
63556;BME280;49700;48.072;7.800;2023-08-08T11:02:56;99552.03;;;26.26;nan
63556;BME280;49700;48.072;7.800;2023-08-08T11:05:23;99543.78;;;26.34;nan
63556;BME280;49700;48.072;7.800;2023-08-08T11:07:49;99535.34;;;26.44;nan
63556;BME280;49700;48.072;7.800;2023-08-08T11:10:16;99541.50;;;26.38;nan
63556;BME280;49700;48.072;7.800;2023-08-08T11:13:00;99540.97;;;26.08;32.77
63556;BME280;49700;48.072;7.800;2023-08-08T11:15:27;99548.00;;;26.02;33.30
63556;BME280;49700;48.072;7.800;2023-08-08T11:17:56;99545.13;;;26.10;33.24
63556;BME280;49700;48.072;7.800;2023-08-08T11:20:25;99533.59;;;26.23;32.71
63556;BME280;49700;48.072;7.800;2023-08-08T11:22:54;99535.28;;;26.37;32.63
63556;BME280;49700;48.072;7.800;2023-08-08T11:25:27;99539.50;;;26.46;32.68
63556;BME280;49700;48.072;7.800;2023-08-08T11:27:54;99533.88;;;26.41;32.57
63556;BME280;49700;48.072;7.800;2023-08-08T11:30:21;99531.97;;;26.35;32.41
63556;BME280;49700;48.072;7.800;2023-08-08T11:32:48;99536.72;;;26.26;32.94
63556;BME280;49700;48.072;7.800;2023-08-08T11:35:22;99533.97;;;26.13;32.48
63556;BME280;49700;48.072;7.800;2023-08-08T11:37:49;99536.41;;;26.01;32.71
63556;BME280;49700;48.072;7.800;2023-08-08T11:40:17;99546.25;;;25.88;33.54
63556;BME280;49700;48.072;7.800;2023-08-08T11:42:43;99534.50;;;25.67;33.66
63556;BME280;49700;48.072;7.800;2023-08-08T11:45:11;99540.19;;;25.51;34.25
63556;BME280;49700;48.072;7.800;2023-08-08T11:47:53;99541.97;;;25.37;34.51
63556;BME280;49700;48.072;7.800;2023-08-08T11:50:20;99533.22;;;25.28;34.74
63556;BME280;49700;48.072;7.800;2023-08-08T11:52:50;99536.75;;;25.14;34.77
63556;BME280;49700;48.072;7.800;2023-08-08T11:55:16;99544.28;;;24.97;35.17
63556;BME280;49700;48.072;7.800;2023-08-08T11:57:41;99542.88;;;24.80;35.59
63556;BME280;49700;48.072;7.800;2023-08-08T12:00:09;99537.41;;;24.73;35.95
63556;BME280;49700;48.072;7.800;2023-08-08T12:02:42;99533.66;;;24.67;36.02
63556;BME280;49700;48.072;7.800;2023-08-08T12:05:10;99542.28;;;24.63;36.17
63556;BME280;49700;48.072;7.800;2023-08-08T12:07:36;99540.44;;;24.63;36.00
63556;BME280;49700;48.072;7.800;2023-08-08T12:10:03;99540.63;;;24.62;36.26
63556;BME280;49700;48.072;7.800;2023-08-08T12:12:31;99534.84;;;24.65;36.03
63556;BME280;49700;48.072;7.800;2023-08-08T12:15:03;99528.91;;;24.69;36.22
63556;BME280;49700;48.072;7.800;2023-08-08T12:17:29;99523.69;;;24.83;36.23
63556;BME280;49700;48.072;7.800;2023-08-08T12:19:59;99517.78;;;24.94;36.02
63556;BME280;49700;48.072;7.800;2023-08-08T12:22:24;99526.50;;;24.96;35.79
63556;BME280;49700;48.072;7.800;2023-08-08T12:24:50;99520.03;;;24.90;36.65
63556;BME280;49700;48.072;7.800;2023-08-08T12:27:15;99508.22;;;24.85;36.95
63556;BME280;49700;48.072;7.800;2023-08-08T12:29:40;99501.63;;;24.87;36.81
63556;BME280;49700;48.072;7.800;2023-08-08T12:32:06;99512.63;;;24.92;36.66
63556;BME280;49700;48.072;7.800;2023-08-08T12:34:34;99507.13;;;25.01;36.53
63556;BME280;49700;48.072;7.800;2023-08-08T12:36:59;99504.59;;;24.99;36.39
63556;BME280;49700;48.072;7.800;2023-08-08T12:39:24;99505.38;;;24.93;36.65
63556;BME280;49700;48.072;7.800;2023-08-08T12:41:50;99505.81;;;24.97;37.12
63556;BME280;49700;48.072;7.800;2023-08-08T12:44:15;99508.75;;;25.02;37.22
63556;BME280;49700;48.072;7.800;2023-08-08T12:46:40;99509.03;;;25.07;37.18
63556;BME280;49700;48.072;7.800;2023-08-08T12:49:06;99511.13;;;25.11;37.31
63556;BME280;49700;48.072;7.800;2023-08-08T12:51:31;99519.78;;;25.07;37.55
63556;BME280;49700;48.072;7.800;2023-08-08T12:53:57;99509.59;;;25.02;37.62
63556;BME280;49700;48.072;7.800;2023-08-08T12:56:22;99514.53;;;24.99;37.92
63556;BME280;49700;48.072;7.800;2023-08-08T12:58:47;99508.25;;;24.91;37.61
63556;BME280;49700;48.072;7.800;2023-08-08T13:01:13;99500.53;;;24.82;38.11
63556;BME280;49700;48.072;7.800;2023-08-08T13:03:38;99501.50;;;24.74;38.08
63556;BME280;49700;48.072;7.800;2023-08-08T13:06:05;99498.72;;;24.67;38.35
63556;BME280;49700;48.072;7.800;2023-08-08T13:08:30;99501.75;;;24.58;38.16
63556;BME280;49700;48.072;7.800;2023-08-08T13:10:57;99511.56;;;24.50;38.59
63556;BME280;49700;48.072;7.800;2023-08-08T13:13:23;99512.34;;;24.44;38.74
63556;BME280;49700;48.072;7.800;2023-08-08T13:15:51;99503.91;;;24.33;38.58
63556;BME280;49700;48.072;7.800;2023-08-08T13:18:16;99513.53;;;24.27;38.99
63556;BME280;49700;48.072;7.800;2023-08-08T13:20:41;99518.28;;;24.25;39.31